sensor_id;sensor_type;location;lat;lon;timestamp;temperature;humidity
30186;DHT22;31152;49.190;8.122;2022-08-01T00:00:35;24.00;73.30
30186;DHT22;31152;49.190;8.122;2022-08-01T00:03:03;24.00;73.20
30186;DHT22;31152;49.190;8.122;2022-08-01T00:05:30;24.00;73.70
30186;DHT22;31152;49.190;8.122;2022-08-01T00:07:56;24.00;73.60
30186;DHT22;31152;49.190;8.122;2022-08-01T00:10:23;24.00;73.80
30186;DHT22;31152;49.190;8.122;2022-08-01T00:12:50;24.00;73.90
30186;DHT22;31152;49.190;8.122;2022-08-01T00:15:17;24.00;74.50
30186;DHT22;31152;49.190;8.122;2022-08-01T00:17:45;23.90;74.50
30186;DHT22;31152;49.190;8.122;2022-08-01T00:20:14;23.90;74.70
30186;DHT22;31152;49.190;8.122;2022-08-01T00:22:41;23.90;75.00
30186;DHT22;31152;49.190;8.122;2022-08-01T00:25:08;23.90;75.20
30186;DHT22;31152;49.190;8.122;2022-08-01T00:27:37;23.80;75.50
30186;DHT22;31152;49.190;8.122;2022-08-01T00:30:07;23.90;75.70
30186;DHT22;31152;49.190;8.122;2022-08-01T00:32:41;23.70;75.80
30186;DHT22;31152;49.190;8.122;2022-08-01T00:35:09;23.80;76.00
30186;DHT22;31152;49.190;8.122;2022-08-01T00:37:39;23.80;76.40
30186;DHT22;31152;49.190;8.122;2022-08-01T00:40:08;23.70;76.30
30186;DHT22;31152;49.190;8.122;2022-08-01T00:42:37;23.70;76.60
30186;DHT22;31152;49.190;8.122;2022-08-01T00:45:09;23.70;76.70
30186;DHT22;31152;49.190;8.122;2022-08-01T00:47:36;23.70;76.70
30186;DHT22;31152;49.190;8.122;2022-08-01T00:50:04;23.70;76.90
30186;DHT22;31152;49.190;8.122;2022-08-01T00:52:33;23.70;77.00
30186;DHT22;31152;49.190;8.122;2022-08-01T00:55:03;23.60;77.40
30186;DHT22;31152;49.190;8.122;2022-08-01T00:57:30;23.70;77.30
30186;DHT22;31152;49.190;8.122;2022-08-01T01:00:17;23.70;77.60
30186;DHT22;31152;49.190;8.122;2022-08-01T01:02:52;23.60;77.70
30186;DHT22;31152;49.190;8.122;2022-08-01T01:05:19;23.70;77.80
30186;DHT22;31152;49.190;8.122;2022-08-01T01:08:14;23.70;78.00
30186;DHT22;31152;49.190;8.122;2022-08-01T01:11:00;23.70;78.40
30186;DHT22;31152;49.190;8.122;2022-08-01T01:13:38;23.60;78.50
30186;DHT22;31152;49.190;8.122;2022-08-01T01:16:18;23.60;78.60
30186;DHT22;31152;49.190;8.122;2022-08-01T01:18:57;23.50;78.60
30186;DHT22;31152;49.190;8.122;2022-08-01T01:21:35;23.50;79.50
30186;DHT22;31152;49.190;8.122;2022-08-01T01:29:39;23.30;79.90
30186;DHT22;31152;49.190;8.122;2022-08-01T01:32:35;23.30;79.30
30186;DHT22;31152;49.190;8.122;2022-08-01T01:35:06;23.30;80.50
30186;DHT22;31152;49.190;8.122;2022-08-01T01:37:34;23.30;80.40
30186;DHT22;31152;49.190;8.122;2022-08-01T01:40:05;23.30;80.40
30186;DHT22;31152;49.190;8.122;2022-08-01T01:42:33;23.20;81.40
30186;DHT22;31152;49.190;8.122;2022-08-01T01:45:02;23.20;81.40
30186;DHT22;31152;49.190;8.122;2022-08-01T01:47:31;23.10;81.50
30186;DHT22;31152;49.190;8.122;2022-08-01T01:50:00;23.10;81.40
30186;DHT22;31152;49.190;8.122;2022-08-01T01:52:29;23.00;81.60
30186;DHT22;31152;49.190;8.122;2022-08-01T01:54:59;23.10;81.90
30186;DHT22;31152;49.190;8.122;2022-08-01T01:57:28;23.00;82.10
30186;DHT22;31152;49.190;8.122;2022-08-01T01:59:55;22.90;82.60
30186;DHT22;31152;49.190;8.122;2022-08-01T02:02:24;22.90;82.80
30186;DHT22;31152;49.190;8.122;2022-08-01T02:04:54;22.80;82.70
30186;DHT22;31152;49.190;8.122;2022-08-01T02:07:24;22.80;83.60
30186;DHT22;31152;49.190;8.122;2022-08-01T02:09:54;22.70;83.90
30186;DHT22;31152;49.190;8.122;2022-08-01T02:12:22;22.60;84.00
30186;DHT22;31152;49.190;8.122;2022-08-01T02:14:53;22.50;85.10
30186;DHT22;31152;49.190;8.122;2022-08-01T02:17:20;22.50;85.70
30186;DHT22;31152;49.190;8.122;2022-08-01T02:19:48;22.40;86.00
30186;DHT22;31152;49.190;8.122;2022-08-01T02:22:33;22.40;86.40
30186;DHT22;31152;49.190;8.122;2022-08-01T02:25:18;22.30;87.00
30186;DHT22;31152;49.190;8.122;2022-08-01T02:30:46;22.20;87.00
30186;DHT22;31152;49.190;8.122;2022-08-01T02:33:23;22.20;87.70
30186;DHT22;31152;49.190;8.122;2022-08-01T02:35:54;22.10;87.70
30186;DHT22;31152;49.190;8.122;2022-08-01T02:38:44;22.10;88.30
30186;DHT22;31152;49.190;8.122;2022-08-01T02:41:16;22.00;88.30
30186;DHT22;31152;49.190;8.122;2022-08-01T02:43:48;22.10;88.90
30186;DHT22;31152;49.190;8.122;2022-08-01T02:46:26;22.00;88.90
30186;DHT22;31152;49.190;8.122;2022-08-01T02:48:55;22.00;88.90
30186;DHT22;31152;49.190;8.122;2022-08-01T02:51:24;22.00;89.40
30186;DHT22;31152;49.190;8.122;2022-08-01T02:53:53;21.90;89.70
30186;DHT22;31152;49.190;8.122;2022-08-01T02:56:21;21.90;89.30
30186;DHT22;31152;49.190;8.122;2022-08-01T02:59:21;21.90;90.10
30186;DHT22;31152;49.190;8.122;2022-08-01T03:01:56;21.80;90.50
30186;DHT22;31152;49.190;8.122;2022-08-01T03:04:29;21.70;90.80
30186;DHT22;31152;49.190;8.122;2022-08-01T03:06:56;21.70;90.90
30186;DHT22;31152;49.190;8.122;2022-08-01T03:09:26;21.60;91.10
30186;DHT22;31152;49.190;8.122;2022-08-01T03:11:57;21.50;91.40
30186;DHT22;31152;49.190;8.122;2022-08-01T03:14:25;21.50;91.50
30186;DHT22;31152;49.190;8.122;2022-08-01T03:16:54;21.50;91.40
30186;DHT22;31152;49.190;8.122;2022-08-01T03:19:24;21.40;91.70
30186;DHT22;31152;49.190;8.122;2022-08-01T03:21:52;21.40;91.80
30186;DHT22;31152;49.190;8.122;2022-08-01T03:24:21;21.40;92.20
30186;DHT22;31152;49.190;8.122;2022-08-01T03:26:51;21.20;92.50
30186;DHT22;31152;49.190;8.122;2022-08-01T03:29:22;21.10;92.70
30186;DHT22;31152;49.190;8.122;2022-08-01T03:31:51;21.10;92.80
30186;DHT22;31152;49.190;8.122;2022-08-01T03:34:19;21.00;93.30
30186;DHT22;31152;49.190;8.122;2022-08-01T03:37:17;20.80;93.70
30186;DHT22;31152;49.190;8.122;2022-08-01T03:42:38;20.70;94.30
30186;DHT22;31152;49.190;8.122;2022-08-01T03:45:22;20.70;94.60
30186;DHT22;31152;49.190;8.122;2022-08-01T03:47:55;20.60;94.90
30186;DHT22;31152;49.190;8.122;2022-08-01T03:50:25;20.60;95.10
30186;DHT22;31152;49.190;8.122;2022-08-01T03:52:54;20.60;95.30
30186;DHT22;31152;49.190;8.122;2022-08-01T03:55:24;20.60;95.10
30186;DHT22;31152;49.190;8.122;2022-08-01T03:57:51;20.60;95.50
30186;DHT22;31152;49.190;8.122;2022-08-01T04:00:19;20.60;95.70
30186;DHT22;31152;49.190;8.122;2022-08-01T04:02:47;20.60;95.80
30186;DHT22;31152;49.190;8.122;2022-08-01T04:05:18;20.60;95.90
30186;DHT22;31152;49.190;8.122;2022-08-01T04:07:49;20.70;96.00
30186;DHT22;31152;49.190;8.122;2022-08-01T04:10:24;20.70;96.10
30186;DHT22;31152;49.190;8.122;2022-08-01T04:12:51;20.70;96.10
30186;DHT22;31152;49.190;8.122;2022-08-01T04:15:21;20.70;96.30
30186;DHT22;31152;49.190;8.122;2022-08-01T04:17:50;20.70;96.50
30186;DHT22;31152;49.190;8.122;2022-08-01T04:20:17;20.70;96.70
30186;DHT22;31152;49.190;8.122;2022-08-01T04:22:44;20.70;96.90
30186;DHT22;31152;49.190;8.122;2022-08-01T04:25:15;20.70;96.80
30186;DHT22;31152;49.190;8.122;2022-08-01T04:27:50;20.70;97.10
30186;DHT22;31152;49.190;8.122;2022-08-01T04:30:28;20.70;97.20
30186;DHT22;31152;49.190;8.122;2022-08-01T04:33:00;20.60;97.50
30186;DHT22;31152;49.190;8.122;2022-08-01T04:35:28;20.60;97.60
30186;DHT22;31152;49.190;8.122;2022-08-01T04:38:22;20.60;97.90
30186;DHT22;31152;49.190;8.122;2022-08-01T04:40:50;20.60;98.10
30186;DHT22;31152;49.190;8.122;2022-08-01T04:43:17;20.60;98.10
30186;DHT22;31152;49.190;8.122;2022-08-01T04:45:46;20.70;98.10
30186;DHT22;31152;49.190;8.122;2022-08-01T04:48:17;20.80;97.80
30186;DHT22;31152;49.190;8.122;2022-08-01T04:50:48;20.90;97.80
30186;DHT22;31152;49.190;8.122;2022-08-01T04:53:17;20.90;97.70
30186;DHT22;31152;49.190;8.122;2022-08-01T04:55:45;20.90;97.80
30186;DHT22;31152;49.190;8.122;2022-08-01T04:58:14;20.90;97.70
30186;DHT22;31152;49.190;8.122;2022-08-01T05:00:46;21.00;97.70
30186;DHT22;31152;49.190;8.122;2022-08-01T05:03:13;21.10;97.40
30186;DHT22;31152;49.190;8.122;2022-08-01T05:05:40;21.20;97.50
30186;DHT22;31152;49.190;8.122;2022-08-01T05:08:12;21.20;97.20
30186;DHT22;31152;49.190;8.122;2022-08-01T05:10:40;21.30;97.30
30186;DHT22;31152;49.190;8.122;2022-08-01T05:13:08;21.30;97.30
30186;DHT22;31152;49.190;8.122;2022-08-01T05:15:35;21.30;97.40
30186;DHT22;31152;49.190;8.122;2022-08-01T05:18:05;21.30;97.50
30186;DHT22;31152;49.190;8.122;2022-08-01T05:20:35;21.30;97.50
30186;DHT22;31152;49.190;8.122;2022-08-01T05:23:02;21.30;97.70
30186;DHT22;31152;49.190;8.122;2022-08-01T05:25:29;21.30;97.80
30186;DHT22;31152;49.190;8.122;2022-08-01T05:28:15;21.30;97.80
30186;DHT22;31152;49.190;8.122;2022-08-01T05:30:45;21.30;97.90
30186;DHT22;31152;49.190;8.122;2022-08-01T05:33:11;21.40;97.90
30186;DHT22;31152;49.190;8.122;2022-08-01T05:35:38;21.50;97.90
30186;DHT22;31152;49.190;8.122;2022-08-01T05:38:13;21.50;97.70
30186;DHT22;31152;49.190;8.122;2022-08-01T05:40:40;21.50;97.60
30186;DHT22;31152;49.190;8.122;2022-08-01T05:43:07;21.50;97.70
30186;DHT22;31152;49.190;8.122;2022-08-01T05:45:34;21.60;97.70
30186;DHT22;31152;49.190;8.122;2022-08-01T05:48:00;21.60;97.80
30186;DHT22;31152;49.190;8.122;2022-08-01T05:50:27;21.70;97.70
30186;DHT22;31152;49.190;8.122;2022-08-01T05:52:54;21.70;97.50
30186;DHT22;31152;49.190;8.122;2022-08-01T05:55:21;21.80;97.50
30186;DHT22;31152;49.190;8.122;2022-08-01T05:57:48;21.90;97.30
30186;DHT22;31152;49.190;8.122;2022-08-01T06:00:14;21.90;97.20
30186;DHT22;31152;49.190;8.122;2022-08-01T06:02:46;22.00;97.00
30186;DHT22;31152;49.190;8.122;2022-08-01T06:05:13;22.10;96.90
30186;DHT22;31152;49.190;8.122;2022-08-01T06:07:42;22.20;96.80
30186;DHT22;31152;49.190;8.122;2022-08-01T06:10:09;22.20;96.60
30186;DHT22;31152;49.190;8.122;2022-08-01T06:12:36;22.30;96.50
30186;DHT22;31152;49.190;8.122;2022-08-01T06:15:06;22.40;96.10
30186;DHT22;31152;49.190;8.122;2022-08-01T06:17:34;22.50;95.90
30186;DHT22;31152;49.190;8.122;2022-08-01T06:20:00;22.80;95.50
30186;DHT22;31152;49.190;8.122;2022-08-01T06:22:27;22.90;95.20
30186;DHT22;31152;49.190;8.122;2022-08-01T06:24:54;23.00;94.90
30186;DHT22;31152;49.190;8.122;2022-08-01T06:27:21;23.00;94.40
30186;DHT22;31152;49.190;8.122;2022-08-01T06:29:51;23.20;94.20
30186;DHT22;31152;49.190;8.122;2022-08-01T06:32:23;23.30;93.90
30186;DHT22;31152;49.190;8.122;2022-08-01T06:34:55;23.30;93.60
30186;DHT22;31152;49.190;8.122;2022-08-01T06:37:22;23.20;93.30
30186;DHT22;31152;49.190;8.122;2022-08-01T06:39:49;23.20;93.40
30186;DHT22;31152;49.190;8.122;2022-08-01T06:42:16;23.10;93.40
30186;DHT22;31152;49.190;8.122;2022-08-01T06:44:44;23.10;93.50
30186;DHT22;31152;49.190;8.122;2022-08-01T06:47:11;23.10;93.70
30186;DHT22;31152;49.190;8.122;2022-08-01T06:49:40;23.10;93.70
30186;DHT22;31152;49.190;8.122;2022-08-01T06:52:06;22.90;93.80
30186;DHT22;31152;49.190;8.122;2022-08-01T06:54:34;22.90;93.90
30186;DHT22;31152;49.190;8.122;2022-08-01T06:57:05;22.90;93.90
30186;DHT22;31152;49.190;8.122;2022-08-01T06:59:32;23.00;93.90
30186;DHT22;31152;49.190;8.122;2022-08-01T07:01:59;23.00;93.80
30186;DHT22;31152;49.190;8.122;2022-08-01T07:04:27;23.00;93.60
30186;DHT22;31152;49.190;8.122;2022-08-01T07:06:54;23.10;93.90
30186;DHT22;31152;49.190;8.122;2022-08-01T07:09:20;23.20;93.40
30186;DHT22;31152;49.190;8.122;2022-08-01T07:11:55;23.20;93.00
30186;DHT22;31152;49.190;8.122;2022-08-01T07:14:24;23.20;93.00
30186;DHT22;31152;49.190;8.122;2022-08-01T07:16:51;23.20;92.80
30186;DHT22;31152;49.190;8.122;2022-08-01T07:19:18;23.20;92.70
30186;DHT22;31152;49.190;8.122;2022-08-01T07:21:45;23.30;92.60
30186;DHT22;31152;49.190;8.122;2022-08-01T07:24:16;23.20;92.20
30186;DHT22;31152;49.190;8.122;2022-08-01T07:26:48;23.30;92.30
30186;DHT22;31152;49.190;8.122;2022-08-01T07:29:26;23.40;92.30
30186;DHT22;31152;49.190;8.122;2022-08-01T07:31:58;23.40;92.00
30186;DHT22;31152;49.190;8.122;2022-08-01T07:34:25;23.50;91.60
30186;DHT22;31152;49.190;8.122;2022-08-01T07:36:52;23.60;92.10
30186;DHT22;31152;49.190;8.122;2022-08-01T07:39:22;23.60;91.50
30186;DHT22;31152;49.190;8.122;2022-08-01T07:41:51;23.70;91.50
30186;DHT22;31152;49.190;8.122;2022-08-01T07:44:35;23.70;91.30
30186;DHT22;31152;49.190;8.122;2022-08-01T07:47:04;23.80;91.20
30186;DHT22;31152;49.190;8.122;2022-08-01T07:49:31;23.90;91.10
30186;DHT22;31152;49.190;8.122;2022-08-01T07:52:05;23.90;90.50
30186;DHT22;31152;49.190;8.122;2022-08-01T07:54:32;24.00;90.10
30186;DHT22;31152;49.190;8.122;2022-08-01T07:57:01;24.00;90.00
30186;DHT22;31152;49.190;8.122;2022-08-01T07:59:28;24.00;90.00
30186;DHT22;31152;49.190;8.122;2022-08-01T08:01:57;24.10;90.10
30186;DHT22;31152;49.190;8.122;2022-08-01T08:04:25;24.10;89.80
30186;DHT22;31152;49.190;8.122;2022-08-01T08:06:52;24.10;90.00
30186;DHT22;31152;49.190;8.122;2022-08-01T08:09:21;24.20;88.70
30186;DHT22;31152;49.190;8.122;2022-08-01T08:11:50;24.20;88.80
30186;DHT22;31152;49.190;8.122;2022-08-01T08:14:21;24.40;88.90
30186;DHT22;31152;49.190;8.122;2022-08-01T08:17:00;24.40;88.60
30186;DHT22;31152;49.190;8.122;2022-08-01T08:19:27;24.50;88.80
30186;DHT22;31152;49.190;8.122;2022-08-01T08:22:04;24.60;88.60
30186;DHT22;31152;49.190;8.122;2022-08-01T08:24:32;24.60;88.20
30186;DHT22;31152;49.190;8.122;2022-08-01T08:27:00;24.60;87.20
30186;DHT22;31152;49.190;8.122;2022-08-01T08:29:29;24.70;87.30
30186;DHT22;31152;49.190;8.122;2022-08-01T08:32:00;24.70;86.50
30186;DHT22;31152;49.190;8.122;2022-08-01T08:34:30;24.80;86.40
30186;DHT22;31152;49.190;8.122;2022-08-01T08:36:57;24.80;86.90
30186;DHT22;31152;49.190;8.122;2022-08-01T08:39:25;24.90;85.80
30186;DHT22;31152;49.190;8.122;2022-08-01T08:42:04;25.00;86.00
30186;DHT22;31152;49.190;8.122;2022-08-01T08:44:32;25.10;85.10
30186;DHT22;31152;49.190;8.122;2022-08-01T08:47:02;25.20;84.60
30186;DHT22;31152;49.190;8.122;2022-08-01T08:49:35;25.10;84.50
30186;DHT22;31152;49.190;8.122;2022-08-01T08:52:04;25.20;84.80
30186;DHT22;31152;49.190;8.122;2022-08-01T08:54:35;25.20;84.30
30186;DHT22;31152;49.190;8.122;2022-08-01T08:57:06;25.30;84.20
30186;DHT22;31152;49.190;8.122;2022-08-01T08:59:33;25.40;83.80
30186;DHT22;31152;49.190;8.122;2022-08-01T09:02:00;25.50;83.30
30186;DHT22;31152;49.190;8.122;2022-08-01T09:04:33;25.50;82.50
30186;DHT22;31152;49.190;8.122;2022-08-01T09:07:03;25.50;82.30
30186;DHT22;31152;49.190;8.122;2022-08-01T09:09:30;25.50;82.40
30186;DHT22;31152;49.190;8.122;2022-08-01T09:11:59;25.50;82.70
30186;DHT22;31152;49.190;8.122;2022-08-01T09:14:26;25.50;81.90
30186;DHT22;31152;49.190;8.122;2022-08-01T09:17:09;25.50;82.10
30186;DHT22;31152;49.190;8.122;2022-08-01T09:19:57;25.50;82.30
30186;DHT22;31152;49.190;8.122;2022-08-01T09:22:27;25.60;81.70
30186;DHT22;31152;49.190;8.122;2022-08-01T09:25:07;25.70;81.60
30186;DHT22;31152;49.190;8.122;2022-08-01T09:27:36;25.70;81.00
30186;DHT22;31152;49.190;8.122;2022-08-01T09:30:17;25.70;81.00
30186;DHT22;31152;49.190;8.122;2022-08-01T09:33:02;25.60;81.10
30186;DHT22;31152;49.190;8.122;2022-08-01T09:35:55;25.60;80.80
30186;DHT22;31152;49.190;8.122;2022-08-01T09:38:25;25.60;81.10
30186;DHT22;31152;49.190;8.122;2022-08-01T09:40:57;25.60;81.10
30186;DHT22;31152;49.190;8.122;2022-08-01T09:43:26;25.60;80.50
30186;DHT22;31152;49.190;8.122;2022-08-01T09:45:54;25.60;80.80
30186;DHT22;31152;49.190;8.122;2022-08-01T09:48:23;25.60;81.10
30186;DHT22;31152;49.190;8.122;2022-08-01T09:50:57;25.80;81.40
30186;DHT22;31152;49.190;8.122;2022-08-01T09:53:42;25.80;81.00
30186;DHT22;31152;49.190;8.122;2022-08-01T09:56:18;25.80;80.00
30186;DHT22;31152;49.190;8.122;2022-08-01T09:58:54;25.70;80.40
30186;DHT22;31152;49.190;8.122;2022-08-01T10:01:27;25.60;81.10
30186;DHT22;31152;49.190;8.122;2022-08-01T10:04:11;25.80;82.20
30186;DHT22;31152;49.190;8.122;2022-08-01T10:06:43;25.90;80.30
30186;DHT22;31152;49.190;8.122;2022-08-01T10:09:18;25.90;79.60
30186;DHT22;31152;49.190;8.122;2022-08-01T10:12:03;25.90;80.00
30186;DHT22;31152;49.190;8.122;2022-08-01T10:14:42;26.00;79.10
30186;DHT22;31152;49.190;8.122;2022-08-01T10:17:18;26.00;79.00
30186;DHT22;31152;49.190;8.122;2022-08-01T10:19:46;26.10;78.30
30186;DHT22;31152;49.190;8.122;2022-08-01T10:22:14;26.20;78.40
30186;DHT22;31152;49.190;8.122;2022-08-01T10:24:47;26.30;77.00
30186;DHT22;31152;49.190;8.122;2022-08-01T10:27:16;26.20;77.20
30186;DHT22;31152;49.190;8.122;2022-08-01T10:30:04;26.20;77.30
30186;DHT22;31152;49.190;8.122;2022-08-01T10:32:50;26.10;77.60
30186;DHT22;31152;49.190;8.122;2022-08-01T10:35:20;26.00;78.40
30186;DHT22;31152;49.190;8.122;2022-08-01T10:38:07;26.00;78.60
30186;DHT22;31152;49.190;8.122;2022-08-01T10:40:40;26.10;78.10
30186;DHT22;31152;49.190;8.122;2022-08-01T10:43:10;26.20;77.90
30186;DHT22;31152;49.190;8.122;2022-08-01T10:45:38;26.40;77.50
30186;DHT22;31152;49.190;8.122;2022-08-01T10:50:52;26.40;76.40
30186;DHT22;31152;49.190;8.122;2022-08-01T10:53:24;26.40;76.10
30186;DHT22;31152;49.190;8.122;2022-08-01T10:56:08;26.40;75.60
30186;DHT22;31152;49.190;8.122;2022-08-01T10:58:42;26.40;75.40
30186;DHT22;31152;49.190;8.122;2022-08-01T11:01:30;26.40;76.40
30186;DHT22;31152;49.190;8.122;2022-08-01T11:04:13;26.40;75.60
30186;DHT22;31152;49.190;8.122;2022-08-01T11:06:52;26.20;75.20
30186;DHT22;31152;49.190;8.122;2022-08-01T11:09:29;26.30;75.10
30186;DHT22;31152;49.190;8.122;2022-08-01T11:12:11;26.30;74.90
30186;DHT22;31152;49.190;8.122;2022-08-01T11:17:35;26.50;75.00
30186;DHT22;31152;49.190;8.122;2022-08-01T11:20:12;26.60;73.80
30186;DHT22;31152;49.190;8.122;2022-08-01T11:28:32;27.20;69.50
30186;DHT22;31152;49.190;8.122;2022-08-01T11:33:48;27.10;68.90
30186;DHT22;31152;49.190;8.122;2022-08-01T11:36:20;27.00;69.40
30186;DHT22;31152;49.190;8.122;2022-08-01T11:41:41;27.30;69.50
30186;DHT22;31152;49.190;8.122;2022-08-01T11:44:19;27.50;67.90
30186;DHT22;31152;49.190;8.122;2022-08-01T11:46:59;27.70;66.40
30186;DHT22;31152;49.190;8.122;2022-08-01T11:54:48;28.30;65.50
30186;DHT22;31152;49.190;8.122;2022-08-01T11:57:27;28.20;65.60
30186;DHT22;31152;49.190;8.122;2022-08-01T12:00:15;28.00;65.60
30186;DHT22;31152;49.190;8.122;2022-08-01T12:02:48;27.80;66.30
30186;DHT22;31152;49.190;8.122;2022-08-01T12:05:25;27.90;66.40
30186;DHT22;31152;49.190;8.122;2022-08-01T12:07:53;28.10;65.40
30186;DHT22;31152;49.190;8.122;2022-08-01T12:10:27;28.20;65.60
30186;DHT22;31152;49.190;8.122;2022-08-01T12:13:01;28.30;64.10
30186;DHT22;31152;49.190;8.122;2022-08-01T12:15:36;28.30;64.90
30186;DHT22;31152;49.190;8.122;2022-08-01T12:18:09;28.10;65.50
30186;DHT22;31152;49.190;8.122;2022-08-01T12:20:38;28.00;66.30
30186;DHT22;31152;49.190;8.122;2022-08-01T12:23:20;27.90;65.80
30186;DHT22;31152;49.190;8.122;2022-08-01T12:25:51;27.90;65.70
30186;DHT22;31152;49.190;8.122;2022-08-01T12:28:18;27.90;66.40
30186;DHT22;31152;49.190;8.122;2022-08-01T12:30:47;28.10;64.90
30186;DHT22;31152;49.190;8.122;2022-08-01T12:33:17;28.30;64.90
30186;DHT22;31152;49.190;8.122;2022-08-01T12:35:45;28.50;65.00
30186;DHT22;31152;49.190;8.122;2022-08-01T12:38:20;28.70;64.20
30186;DHT22;31152;49.190;8.122;2022-08-01T12:40:51;28.80;63.90
30186;DHT22;31152;49.190;8.122;2022-08-01T12:43:22;28.80;63.10
30186;DHT22;31152;49.190;8.122;2022-08-01T12:45:58;28.50;63.40
30186;DHT22;31152;49.190;8.122;2022-08-01T12:48:27;28.20;64.50
30186;DHT22;31152;49.190;8.122;2022-08-01T12:51:00;28.20;65.40
30186;DHT22;31152;49.190;8.122;2022-08-01T12:53:35;28.40;66.20
30186;DHT22;31152;49.190;8.122;2022-08-01T12:56:09;28.30;65.40
30186;DHT22;31152;49.190;8.122;2022-08-01T12:58:39;28.30;66.00
30186;DHT22;31152;49.190;8.122;2022-08-01T13:01:08;28.20;65.80
30186;DHT22;31152;49.190;8.122;2022-08-01T13:03:35;28.30;65.60
30186;DHT22;31152;49.190;8.122;2022-08-01T13:06:13;28.30;66.60
30186;DHT22;31152;49.190;8.122;2022-08-01T13:08:41;28.40;65.60
30186;DHT22;31152;49.190;8.122;2022-08-01T13:11:11;28.50;65.10
30186;DHT22;31152;49.190;8.122;2022-08-01T13:13:46;28.30;66.20
30186;DHT22;31152;49.190;8.122;2022-08-01T13:16:17;28.30;66.10
30186;DHT22;31152;49.190;8.122;2022-08-01T13:19:04;28.10;66.30
30186;DHT22;31152;49.190;8.122;2022-08-01T13:21:32;28.00;66.90
30186;DHT22;31152;49.190;8.122;2022-08-01T13:24:27;27.90;67.90
30186;DHT22;31152;49.190;8.122;2022-08-01T13:26:56;27.80;67.80
30186;DHT22;31152;49.190;8.122;2022-08-01T13:29:37;27.60;68.00
30186;DHT22;31152;49.190;8.122;2022-08-01T13:32:16;27.50;68.80
30186;DHT22;31152;49.190;8.122;2022-08-01T13:35:04;27.60;69.30
30186;DHT22;31152;49.190;8.122;2022-08-01T13:37:31;27.70;68.90
30186;DHT22;31152;49.190;8.122;2022-08-01T13:39:58;27.90;69.20
30186;DHT22;31152;49.190;8.122;2022-08-01T13:42:27;28.00;68.30
30186;DHT22;31152;49.190;8.122;2022-08-01T13:44:57;28.00;67.50
30186;DHT22;31152;49.190;8.122;2022-08-01T13:47:24;28.00;67.70
30186;DHT22;31152;49.190;8.122;2022-08-01T13:49:58;28.20;67.80
30186;DHT22;31152;49.190;8.122;2022-08-01T13:52:28;28.20;66.90
30186;DHT22;31152;49.190;8.122;2022-08-01T13:54:58;28.10;66.80
30186;DHT22;31152;49.190;8.122;2022-08-01T13:57:28;27.90;67.90
30186;DHT22;31152;49.190;8.122;2022-08-01T14:00:07;27.90;68.50
30186;DHT22;31152;49.190;8.122;2022-08-01T14:02:35;27.90;68.60
30186;DHT22;31152;49.190;8.122;2022-08-01T14:05:02;27.90;68.70
30186;DHT22;31152;49.190;8.122;2022-08-01T14:07:29;27.90;68.00
30186;DHT22;31152;49.190;8.122;2022-08-01T14:09:57;27.90;68.50
30186;DHT22;31152;49.190;8.122;2022-08-01T14:12:46;27.80;68.60
30186;DHT22;31152;49.190;8.122;2022-08-01T14:15:13;27.80;68.40
30186;DHT22;31152;49.190;8.122;2022-08-01T14:17:54;27.90;68.70
30186;DHT22;31152;49.190;8.122;2022-08-01T14:20:21;27.90;68.30
30186;DHT22;31152;49.190;8.122;2022-08-01T14:22:48;27.90;68.40
30186;DHT22;31152;49.190;8.122;2022-08-01T14:25:17;27.80;68.10
30186;DHT22;31152;49.190;8.122;2022-08-01T14:28:04;27.70;68.30
30186;DHT22;31152;49.190;8.122;2022-08-01T14:30:33;27.80;68.60
30186;DHT22;31152;49.190;8.122;2022-08-01T14:33:02;27.80;69.00
30186;DHT22;31152;49.190;8.122;2022-08-01T14:35:29;27.90;68.60
30186;DHT22;31152;49.190;8.122;2022-08-01T14:38:18;27.90;68.80
30186;DHT22;31152;49.190;8.122;2022-08-01T14:40:59;27.80;68.00
30186;DHT22;31152;49.190;8.122;2022-08-01T14:43:26;27.80;68.30
30186;DHT22;31152;49.190;8.122;2022-08-01T14:46:01;27.80;68.40
30186;DHT22;31152;49.190;8.122;2022-08-01T14:48:30;27.90;68.70
30186;DHT22;31152;49.190;8.122;2022-08-01T14:51:00;28.00;67.90
30186;DHT22;31152;49.190;8.122;2022-08-01T14:53:30;27.80;68.50
30186;DHT22;31152;49.190;8.122;2022-08-01T14:56:01;27.70;68.50
30186;DHT22;31152;49.190;8.122;2022-08-01T14:58:28;27.60;69.00
30186;DHT22;31152;49.190;8.122;2022-08-01T15:00:55;27.50;68.90
30186;DHT22;31152;49.190;8.122;2022-08-01T15:03:25;27.50;69.60
30186;DHT22;31152;49.190;8.122;2022-08-01T15:05:51;27.60;69.80
30186;DHT22;31152;49.190;8.122;2022-08-01T15:08:21;27.70;69.80
30186;DHT22;31152;49.190;8.122;2022-08-01T15:10:47;27.80;69.20
30186;DHT22;31152;49.190;8.122;2022-08-01T15:13:14;27.70;68.80
30186;DHT22;31152;49.190;8.122;2022-08-01T15:15:43;27.70;69.00
30186;DHT22;31152;49.190;8.122;2022-08-01T15:18:10;27.50;68.60
30186;DHT22;31152;49.190;8.122;2022-08-01T15:20:37;27.30;69.00
30186;DHT22;31152;49.190;8.122;2022-08-01T15:23:06;27.20;70.00
30186;DHT22;31152;49.190;8.122;2022-08-01T15:25:35;27.10;69.90
30186;DHT22;31152;49.190;8.122;2022-08-01T15:28:08;27.10;69.70
30186;DHT22;31152;49.190;8.122;2022-08-01T15:30:36;27.10;70.50
30186;DHT22;31152;49.190;8.122;2022-08-01T15:33:03;27.00;70.40
30186;DHT22;31152;49.190;8.122;2022-08-01T15:35:32;27.10;70.60
30186;DHT22;31152;49.190;8.122;2022-08-01T15:37:59;27.10;70.50
30186;DHT22;31152;49.190;8.122;2022-08-01T15:40:28;27.00;70.90
30186;DHT22;31152;49.190;8.122;2022-08-01T15:42:55;27.00;70.70
30186;DHT22;31152;49.190;8.122;2022-08-01T15:45:25;27.10;70.80
30186;DHT22;31152;49.190;8.122;2022-08-01T15:48:12;27.00;70.90
30186;DHT22;31152;49.190;8.122;2022-08-01T15:50:39;27.00;71.00
30186;DHT22;31152;49.190;8.122;2022-08-01T15:53:06;26.90;70.80
30186;DHT22;31152;49.190;8.122;2022-08-01T15:55:37;26.90;70.80
30186;DHT22;31152;49.190;8.122;2022-08-01T15:58:06;27.00;70.70
30186;DHT22;31152;49.190;8.122;2022-08-01T16:00:33;27.10;70.80
30186;DHT22;31152;49.190;8.122;2022-08-01T16:03:04;27.00;70.20
30186;DHT22;31152;49.190;8.122;2022-08-01T16:05:33;26.90;71.20
30186;DHT22;31152;49.190;8.122;2022-08-01T16:08:11;26.80;70.10
30186;DHT22;31152;49.190;8.122;2022-08-01T16:10:38;26.80;70.20
30186;DHT22;31152;49.190;8.122;2022-08-01T16:13:05;26.80;70.30
30186;DHT22;31152;49.190;8.122;2022-08-01T16:15:35;26.80;70.10
30186;DHT22;31152;49.190;8.122;2022-08-01T16:18:05;26.80;70.10
30186;DHT22;31152;49.190;8.122;2022-08-01T16:20:32;26.70;70.70
30186;DHT22;31152;49.190;8.122;2022-08-01T16:22:59;26.70;71.10
30186;DHT22;31152;49.190;8.122;2022-08-01T16:25:26;26.70;70.90
30186;DHT22;31152;49.190;8.122;2022-08-01T16:27:55;26.70;71.10
30186;DHT22;31152;49.190;8.122;2022-08-01T16:30:23;26.60;71.10